sensor_id;sensor_type;location;lat;lon;timestamp;pressure;altitude;pressure_sealevel;temperature;humidity
56420;BME280;42323;52.170;7.538;2023-05-02T00:01:57;101365.78;;;10.96;82.10
56420;BME280;42323;52.170;7.538;2023-05-02T00:04:24;101360.38;;;10.90;82.33
56420;BME280;42323;52.170;7.538;2023-05-02T00:06:53;101352.69;;;10.88;83.03
56420;BME280;42323;52.170;7.538;2023-05-02T00:09:20;101356.25;;;10.79;83.00
56420;BME280;42323;52.170;7.538;2023-05-02T00:11:47;101350.31;;;10.69;83.50
56420;BME280;42323;52.170;7.538;2023-05-02T00:14:14;101365.41;;;10.67;84.03
56420;BME280;42323;52.170;7.538;2023-05-02T00:16:41;101356.84;;;10.65;84.24
56420;BME280;42323;52.170;7.538;2023-05-02T00:19:07;101351.91;;;10.62;84.21
56420;BME280;42323;52.170;7.538;2023-05-02T00:21:34;101370.50;;;10.76;84.01
56420;BME280;42323;52.170;7.538;2023-05-02T00:24:00;101367.38;;;10.73;84.11
56420;BME280;42323;52.170;7.538;2023-05-02T00:26:27;101355.91;;;10.74;83.65
56420;BME280;42323;52.170;7.538;2023-05-02T00:28:54;101350.63;;;10.66;84.06
56420;BME280;42323;52.170;7.538;2023-05-02T00:31:20;101353.28;;;10.74;83.66
56420;BME280;42323;52.170;7.538;2023-05-02T00:33:47;101370.50;;;10.76;84.09
56420;BME280;42323;52.170;7.538;2023-05-02T00:36:17;101363.44;;;10.69;83.74
56420;BME280;42323;52.170;7.538;2023-05-02T00:38:44;101370.00;;;10.73;84.41
56420;BME280;42323;52.170;7.538;2023-05-02T00:41:11;101372.44;;;10.74;84.16
56420;BME280;42323;52.170;7.538;2023-05-02T00:43:37;101374.44;;;10.80;83.72
56420;BME280;42323;52.170;7.538;2023-05-02T00:46:07;101383.00;;;10.91;84.10
56420;BME280;42323;52.170;7.538;2023-05-02T00:48:34;101382.69;;;10.94;83.75
56420;BME280;42323;52.170;7.538;2023-05-02T00:51:02;101385.31;;;10.94;83.62
56420;BME280;42323;52.170;7.538;2023-05-02T00:53:30;101381.19;;;10.91;83.92
56420;BME280;42323;52.170;7.538;2023-05-02T00:55:58;101387.28;;;11.00;83.67
56420;BME280;42323;52.170;7.538;2023-05-02T00:58:25;101382.53;;;11.03;83.00
56420;BME280;42323;52.170;7.538;2023-05-02T01:03:45;101384.81;;;10.98;83.29
56420;BME280;42323;52.170;7.538;2023-05-02T01:06:40;101389.25;;;10.98;83.58
56420;BME280;42323;52.170;7.538;2023-05-02T01:09:33;101382.47;;;10.87;84.46
56420;BME280;42323;52.170;7.538;2023-05-02T01:14:51;101381.84;;;10.85;84.63
56420;BME280;42323;52.170;7.538;2023-05-02T01:17:22;101377.38;;;10.77;84.33
56420;BME280;42323;52.170;7.538;2023-05-02T01:19:52;101390.00;;;10.82;84.73
56420;BME280;42323;52.170;7.538;2023-05-02T01:22:21;101393.09;;;10.77;84.63
56420;BME280;42323;52.170;7.538;2023-05-02T01:30:30;101391.78;;;10.73;84.84
56420;BME280;42323;52.170;7.538;2023-05-02T01:33:01;101393.38;;;10.66;84.90
56420;BME280;42323;52.170;7.538;2023-05-02T01:35:29;101381.72;;;10.61;85.47
56420;BME280;42323;52.170;7.538;2023-05-02T01:37:58;101399.00;;;10.71;85.18
56420;BME280;42323;52.170;7.538;2023-05-02T01:40:27;101401.09;;;10.68;85.26
56420;BME280;42323;52.170;7.538;2023-05-02T01:42:56;101400.63;;;10.72;84.83
56420;BME280;42323;52.170;7.538;2023-05-02T01:45:24;101411.63;;;10.76;84.77
56420;BME280;42323;52.170;7.538;2023-05-02T01:47:53;101407.97;;;10.69;84.83
56420;BME280;42323;52.170;7.538;2023-05-02T01:50:23;101399.47;;;10.67;85.21
56420;BME280;42323;52.170;7.538;2023-05-02T01:52:51;101389.25;;;10.55;85.52
56420;BME280;42323;52.170;7.538;2023-05-02T01:55:19;101411.41;;;10.69;84.91
56420;BME280;42323;52.170;7.538;2023-05-02T01:57:47;101410.78;;;10.67;85.17
56420;BME280;42323;52.170;7.538;2023-05-02T02:00:16;101417.47;;;10.70;85.36
56420;BME280;42323;52.170;7.538;2023-05-02T02:02:44;101413.91;;;10.71;85.24
56420;BME280;42323;52.170;7.538;2023-05-02T02:05:12;101423.22;;;10.73;84.22
56420;BME280;42323;52.170;7.538;2023-05-02T02:07:39;101395.47;;;10.54;84.85
56420;BME280;42323;52.170;7.538;2023-05-02T02:10:06;101422.59;;;10.71;84.71
56420;BME280;42323;52.170;7.538;2023-05-02T02:12:41;101437.84;;;10.76;84.99
56420;BME280;42323;52.170;7.538;2023-05-02T02:15:20;101428.13;;;10.68;85.31
56420;BME280;42323;52.170;7.538;2023-05-02T02:18:01;101428.66;;;10.72;85.32
56420;BME280;42323;52.170;7.538;2023-05-02T02:20:31;101438.16;;;10.73;85.49
56420;BME280;42323;52.170;7.538;2023-05-02T02:22:59;101429.00;;;10.77;85.40
56420;BME280;42323;52.170;7.538;2023-05-02T02:25:28;101431.91;;;10.74;85.33
56420;BME280;42323;52.170;7.538;2023-05-02T02:27:55;101423.19;;;10.65;85.39
56420;BME280;42323;52.170;7.538;2023-05-02T02:30:22;101442.25;;;10.75;86.06
56420;BME280;42323;52.170;7.538;2023-05-02T02:32:48;101444.03;;;10.75;86.16
56420;BME280;42323;52.170;7.538;2023-05-02T02:35:15;101422.66;;;10.53;87.35
56420;BME280;42323;52.170;7.538;2023-05-02T02:37:58;101443.97;;;10.59;87.94
56420;BME280;42323;52.170;7.538;2023-05-02T02:40:38;101435.19;;;10.42;88.16
56420;BME280;42323;52.170;7.538;2023-05-02T02:43:21;101450.16;;;10.58;89.25
56420;BME280;42323;52.170;7.538;2023-05-02T02:48:42;101434.00;;;10.36;91.02
56420;BME280;42323;52.170;7.538;2023-05-02T02:51:24;101434.53;;;10.22;91.13
56420;BME280;42323;52.170;7.538;2023-05-02T02:54:13;101446.91;;;10.29;92.00
56420;BME280;42323;52.170;7.538;2023-05-02T02:57:16;101428.59;;;10.12;92.46
56420;BME280;42323;52.170;7.538;2023-05-02T02:59:58;101453.25;;;10.27;92.65
56420;BME280;42323;52.170;7.538;2023-05-02T03:02:31;101466.59;;;10.34;92.82
56420;BME280;42323;52.170;7.538;2023-05-02T03:04:59;101469.50;;;10.30;92.81
56420;BME280;42323;52.170;7.538;2023-05-02T03:07:27;101457.69;;;10.26;92.85
56420;BME280;42323;52.170;7.538;2023-05-02T03:09:54;101455.22;;;10.25;93.65
56420;BME280;42323;52.170;7.538;2023-05-02T03:12:20;101471.31;;;10.30;93.80
56420;BME280;42323;52.170;7.538;2023-05-02T03:14:47;101466.94;;;10.21;94.18
56420;BME280;42323;52.170;7.538;2023-05-02T03:17:13;101483.56;;;10.29;94.28
56420;BME280;42323;52.170;7.538;2023-05-02T03:19:40;101476.91;;;10.35;93.85
56420;BME280;42323;52.170;7.538;2023-05-02T03:22:06;101487.53;;;10.34;93.91
56420;BME280;42323;52.170;7.538;2023-05-02T03:24:33;101477.72;;;10.36;94.01
56420;BME280;42323;52.170;7.538;2023-05-02T03:26:59;101474.91;;;10.29;93.48
56420;BME280;42323;52.170;7.538;2023-05-02T03:29:26;101466.53;;;10.25;93.29
56420;BME280;42323;52.170;7.538;2023-05-02T03:31:54;101488.19;;;10.36;93.37
56420;BME280;42323;52.170;7.538;2023-05-02T03:34:20;101474.91;;;10.29;93.36
56420;BME280;42323;52.170;7.538;2023-05-02T03:36:47;101491.84;;;10.43;92.88
56420;BME280;42323;52.170;7.538;2023-05-02T03:39:14;101486.63;;;10.43;92.12
56420;BME280;42323;52.170;7.538;2023-05-02T03:41:41;101495.81;;;10.47;91.00
56420;BME280;42323;52.170;7.538;2023-05-02T03:44:09;101498.28;;;10.48;90.87
56420;BME280;42323;52.170;7.538;2023-05-02T03:46:35;101503.69;;;10.47;90.23
56420;BME280;42323;52.170;7.538;2023-05-02T03:49:02;101521.09;;;10.56;89.57
56420;BME280;42323;52.170;7.538;2023-05-02T03:51:28;101510.88;;;10.45;89.28
56420;BME280;42323;52.170;7.538;2023-05-02T03:53:54;101524.47;;;10.48;89.06
56420;BME280;42323;52.170;7.538;2023-05-02T03:56:21;101538.38;;;10.49;87.24
56420;BME280;42323;52.170;7.538;2023-05-02T03:58:48;101537.72;;;10.47;86.94
56420;BME280;42323;52.170;7.538;2023-05-02T04:01:15;101540.53;;;10.45;86.61
56420;BME280;42323;52.170;7.538;2023-05-02T04:03:42;101538.13;;;10.34;85.60
56420;BME280;42323;52.170;7.538;2023-05-02T04:06:09;101535.97;;;10.29;85.54
56420;BME280;42323;52.170;7.538;2023-05-02T04:08:35;101540.38;;;10.29;84.78
56420;BME280;42323;52.170;7.538;2023-05-02T04:11:02;101548.78;;;10.23;83.87
56420;BME280;42323;52.170;7.538;2023-05-02T04:13:29;101563.03;;;10.20;84.43
56420;BME280;42323;52.170;7.538;2023-05-02T04:15:55;101573.34;;;10.04;84.98
56420;BME280;42323;52.170;7.538;2023-05-02T04:18:22;101549.34;;;9.91;85.29
56420;BME280;42323;52.170;7.538;2023-05-02T04:20:49;101570.53;;;9.97;86.19
56420;BME280;42323;52.170;7.538;2023-05-02T04:23:15;101571.63;;;9.95;85.16
56420;BME280;42323;52.170;7.538;2023-05-02T04:25:53;101571.38;;;9.88;85.41
56420;BME280;42323;52.170;7.538;2023-05-02T04:28:20;101571.78;;;9.93;84.40
56420;BME280;42323;52.170;7.538;2023-05-02T04:30:50;101567.81;;;9.89;84.68
56420;BME280;42323;52.170;7.538;2023-05-02T04:33:17;101577.47;;;9.89;84.63
56420;BME280;42323;52.170;7.538;2023-05-02T04:35:44;101578.66;;;9.94;84.18
56420;BME280;42323;52.170;7.538;2023-05-02T04:38:10;101587.06;;;9.98;84.00
56420;BME280;42323;52.170;7.538;2023-05-02T04:40:37;101577.31;;;9.90;83.45
56420;BME280;42323;52.170;7.538;2023-05-02T04:43:04;101594.38;;;9.94;83.84
56420;BME280;42323;52.170;7.538;2023-05-02T04:45:31;101589.41;;;9.91;84.13
56420;BME280;42323;52.170;7.538;2023-05-02T04:47:57;101604.47;;;10.07;84.17
56420;BME280;42323;52.170;7.538;2023-05-02T04:50:24;101611.53;;;10.07;84.17
56420;BME280;42323;52.170;7.538;2023-05-02T04:52:53;101611.66;;;10.05;83.70
56420;BME280;42323;52.170;7.538;2023-05-02T04:55:19;101620.47;;;10.04;83.79
56420;BME280;42323;52.170;7.538;2023-05-02T04:57:46;101627.88;;;10.09;84.27
56420;BME280;42323;52.170;7.538;2023-05-02T05:00:13;101621.75;;;10.18;83.86
56420;BME280;42323;52.170;7.538;2023-05-02T05:02:39;101641.72;;;10.19;83.89
56420;BME280;42323;52.170;7.538;2023-05-02T05:05:06;101634.56;;;10.21;83.82
56420;BME280;42323;52.170;7.538;2023-05-02T05:07:33;101626.03;;;10.19;83.53
56420;BME280;42323;52.170;7.538;2023-05-02T05:09:59;101628.78;;;10.17;83.49
56420;BME280;42323;52.170;7.538;2023-05-02T05:12:27;101641.56;;;10.30;83.28
56420;BME280;42323;52.170;7.538;2023-05-02T05:14:53;101619.84;;;10.20;83.04
56420;BME280;42323;52.170;7.538;2023-05-02T05:17:20;101626.00;;;10.28;82.36
56420;BME280;42323;52.170;7.538;2023-05-02T05:19:46;101652.66;;;10.42;81.81
56420;BME280;42323;52.170;7.538;2023-05-02T05:22:13;101651.75;;;10.51;81.48
56420;BME280;42323;52.170;7.538;2023-05-02T05:24:40;101648.75;;;10.46;81.62
56420;BME280;42323;52.170;7.538;2023-05-02T05:27:07;101667.63;;;10.49;81.87
56420;BME280;42323;52.170;7.538;2023-05-02T05:48:07;101740.34;;;8.87;86.99
56420;BME280;42323;52.170;7.538;2023-05-02T05:50:33;101748.47;;;8.74;86.32
56420;BME280;42323;52.170;7.538;2023-05-02T05:53:00;101757.09;;;8.56;86.07
56420;BME280;42323;52.170;7.538;2023-05-02T05:55:26;101763.25;;;8.45;86.58
56420;BME280;42323;52.170;7.538;2023-05-02T05:57:53;101762.00;;;8.39;88.23
56420;BME280;42323;52.170;7.538;2023-05-02T06:00:19;101773.41;;;8.38;87.48
56420;BME280;42323;52.170;7.538;2023-05-02T06:02:46;101773.22;;;8.30;87.31
56420;BME280;42323;52.170;7.538;2023-05-02T06:05:12;101783.78;;;8.28;86.66
56420;BME280;42323;52.170;7.538;2023-05-02T06:07:39;101781.03;;;8.20;86.37
56420;BME280;42323;52.170;7.538;2023-05-02T06:10:06;101785.84;;;8.25;86.69
56420;BME280;42323;52.170;7.538;2023-05-02T06:12:34;101787.66;;;8.34;86.50
56420;BME280;42323;52.170;7.538;2023-05-02T06:15:01;101801.75;;;8.43;85.77
56420;BME280;42323;52.170;7.538;2023-05-02T06:17:27;101800.13;;;8.51;85.49
56420;BME280;42323;52.170;7.538;2023-05-02T06:19:54;101798.06;;;8.55;84.59
56420;BME280;42323;52.170;7.538;2023-05-02T06:22:20;101790.25;;;8.55;84.54
56420;BME280;42323;52.170;7.538;2023-05-02T06:24:47;101815.00;;;8.70;84.52
56420;BME280;42323;52.170;7.538;2023-05-02T06:27:13;101813.22;;;8.71;83.23
56420;BME280;42323;52.170;7.538;2023-05-02T06:29:40;101808.16;;;8.79;83.43
56420;BME280;42323;52.170;7.538;2023-05-02T06:32:06;101816.00;;;8.89;82.26
56420;BME280;42323;52.170;7.538;2023-05-02T06:34:33;101831.81;;;8.97;81.80
56420;BME280;42323;52.170;7.538;2023-05-02T06:36:59;101839.66;;;8.97;81.80
56420;BME280;42323;52.170;7.538;2023-05-02T06:39:26;101832.94;;;8.94;80.90
56420;BME280;42323;52.170;7.538;2023-05-02T06:41:56;101848.75;;;8.93;80.58
56420;BME280;42323;52.170;7.538;2023-05-02T06:44:23;101846.25;;;8.82;80.28
56420;BME280;42323;52.170;7.538;2023-05-02T06:46:50;101858.63;;;8.79;80.93
56420;BME280;42323;52.170;7.538;2023-05-02T06:49:17;101857.13;;;8.77;81.44
56420;BME280;42323;52.170;7.538;2023-05-02T06:51:43;101852.16;;;8.74;81.09
56420;BME280;42323;52.170;7.538;2023-05-02T06:54:10;101871.28;;;8.84;81.10
56420;BME280;42323;52.170;7.538;2023-05-02T06:56:36;101873.72;;;8.76;81.06
56420;BME280;42323;52.170;7.538;2023-05-02T06:59:03;101882.69;;;8.73;80.69
56420;BME280;42323;52.170;7.538;2023-05-02T07:01:30;101890.09;;;8.68;80.95
56420;BME280;42323;52.170;7.538;2023-05-02T07:03:57;101886.03;;;8.54;80.87
56420;BME280;42323;52.170;7.538;2023-05-02T07:06:23;101891.53;;;8.51;80.99
56420;BME280;42323;52.170;7.538;2023-05-02T07:08:50;101899.63;;;8.48;80.23
56420;BME280;42323;52.170;7.538;2023-05-02T07:11:16;101913.84;;;8.56;80.28
56420;BME280;42323;52.170;7.538;2023-05-02T07:13:43;101917.22;;;8.77;79.24
56420;BME280;42323;52.170;7.538;2023-05-02T07:16:10;101906.78;;;8.87;78.56
56420;BME280;42323;52.170;7.538;2023-05-02T07:18:36;101910.56;;;9.03;77.15
56420;BME280;42323;52.170;7.538;2023-05-02T07:21:03;101929.03;;;9.31;76.57
56420;BME280;42323;52.170;7.538;2023-05-02T07:23:30;101926.88;;;9.46;75.37
56420;BME280;42323;52.170;7.538;2023-05-02T07:25:56;101933.59;;;9.48;73.05
56420;BME280;42323;52.170;7.538;2023-05-02T07:28:23;101928.09;;;9.42;74.18
56420;BME280;42323;52.170;7.538;2023-05-02T07:30:49;101943.25;;;9.38;73.11
56420;BME280;42323;52.170;7.538;2023-05-02T07:33:16;101943.25;;;9.38;72.09
56420;BME280;42323;52.170;7.538;2023-05-02T07:35:42;101949.97;;;9.31;71.96
56420;BME280;42323;52.170;7.538;2023-05-02T07:38:09;101950.50;;;9.25;72.24
56420;BME280;42323;52.170;7.538;2023-05-02T07:40:35;101950.78;;;9.22;71.75
56420;BME280;42323;52.170;7.538;2023-05-02T07:43:02;101948.16;;;9.22;71.11
56420;BME280;42323;52.170;7.538;2023-05-02T07:45:28;101957.53;;;9.34;71.27
56420;BME280;42323;52.170;7.538;2023-05-02T07:47:55;101961.13;;;9.43;68.86
56420;BME280;42323;52.170;7.538;2023-05-02T07:50:22;101948.22;;;9.41;68.61
56420;BME280;42323;52.170;7.538;2023-05-02T07:52:49;101962.53;;;9.57;68.06
56420;BME280;42323;52.170;7.538;2023-05-02T07:55:15;101965.28;;;9.65;67.82
56420;BME280;42323;52.170;7.538;2023-05-02T07:57:42;101952.34;;;9.83;66.68
56420;BME280;42323;52.170;7.538;2023-05-02T08:00:09;101973.00;;;10.05;64.77
56420;BME280;42323;52.170;7.538;2023-05-02T08:02:35;101962.94;;;10.20;65.30
56420;BME280;42323;52.170;7.538;2023-05-02T08:05:03;101965.38;;;10.50;64.20
56420;BME280;42323;52.170;7.538;2023-05-02T08:07:31;101958.47;;;10.87;62.22
56420;BME280;42323;52.170;7.538;2023-05-02T08:09:57;101963.09;;;11.02;61.77
56420;BME280;42323;52.170;7.538;2023-05-02T08:12:24;101951.53;;;10.95;61.70
56420;BME280;42323;52.170;7.538;2023-05-02T08:14:50;101970.88;;;10.94;62.42
56420;BME280;42323;52.170;7.538;2023-05-02T08:17:17;101970.81;;;10.76;61.31
56420;BME280;42323;52.170;7.538;2023-05-02T08:19:43;101975.72;;;10.52;60.49
56420;BME280;42323;52.170;7.538;2023-05-02T08:22:10;101981.97;;;10.41;61.62
56420;BME280;42323;52.170;7.538;2023-05-02T08:24:36;101987.13;;;10.61;61.73
56420;BME280;42323;52.170;7.538;2023-05-02T08:27:03;101980.16;;;10.89;60.16
56420;BME280;42323;52.170;7.538;2023-05-02T08:29:29;101984.66;;;11.24;58.53
56420;BME280;42323;52.170;7.538;2023-05-02T08:31:56;101981.72;;;11.54;56.41
56420;BME280;42323;52.170;7.538;2023-05-02T08:34:23;101995.59;;;11.65;56.12
56420;BME280;42323;52.170;7.538;2023-05-02T08:36:50;101984.78;;;11.68;55.92
56420;BME280;42323;52.170;7.538;2023-05-02T08:39:16;101986.47;;;11.87;55.55
56420;BME280;42323;52.170;7.538;2023-05-02T08:41:43;101990.06;;;12.03;55.54
56420;BME280;42323;52.170;7.538;2023-05-02T08:44:10;101994.91;;;12.16;53.37
56420;BME280;42323;52.170;7.538;2023-05-02T08:46:40;102004.75;;;12.32;53.54
56420;BME280;42323;52.170;7.538;2023-05-02T08:49:06;101983.59;;;12.16;52.60
56420;BME280;42323;52.170;7.538;2023-05-02T08:51:36;102007.97;;;12.26;53.73
56420;BME280;42323;52.170;7.538;2023-05-02T08:54:08;102016.50;;;12.46;52.18
56420;BME280;42323;52.170;7.538;2023-05-02T08:56:36;102011.03;;;12.39;52.74
56420;BME280;42323;52.170;7.538;2023-05-02T08:59:03;102010.94;;;12.49;52.24
56420;BME280;42323;52.170;7.538;2023-05-02T09:01:29;102014.75;;;12.54;52.97
56420;BME280;42323;52.170;7.538;2023-05-02T09:03:56;102022.44;;;12.74;51.04
56420;BME280;42323;52.170;7.538;2023-05-02T09:06:25;102029.69;;;12.54;51.94
56420;BME280;42323;52.170;7.538;2023-05-02T09:08:52;102031.16;;;12.48;52.64
56420;BME280;42323;52.170;7.538;2023-05-02T09:11:20;102034.38;;;12.42;51.59
56420;BME280;42323;52.170;7.538;2023-05-02T09:13:48;102045.94;;;12.49;51.93
56420;BME280;42323;52.170;7.538;2023-05-02T09:18:44;102049.22;;;11.90;53.28
56420;BME280;42323;52.170;7.538;2023-05-02T09:21:17;102045.16;;;11.50;54.25
56420;BME280;42323;52.170;7.538;2023-05-02T09:23:54;102057.78;;;11.37;54.91
56420;BME280;42323;52.170;7.538;2023-05-02T09:26:26;102066.81;;;11.24;55.33
56420;BME280;42323;52.170;7.538;2023-05-02T09:28:57;102073.72;;;11.25;55.97
56420;BME280;42323;52.170;7.538;2023-05-02T09:31:26;102062.50;;;11.33;55.64
56420;BME280;42323;52.170;7.538;2023-05-02T09:34:15;102072.22;;;11.50;54.31
56420;BME280;42323;52.170;7.538;2023-05-02T09:36:44;102071.34;;;11.32;52.27
56420;BME280;42323;52.170;7.538;2023-05-02T09:39:18;102081.03;;;11.32;52.29
56420;BME280;42323;52.170;7.538;2023-05-02T09:41:47;102069.88;;;11.20;53.44
56420;BME280;42323;52.170;7.538;2023-05-02T09:44:18;102081.50;;;11.45;53.55
56420;BME280;42323;52.170;7.538;2023-05-02T09:46:52;102069.09;;;11.65;54.27
56420;BME280;42323;52.170;7.538;2023-05-02T09:49:38;102078.34;;;11.96;52.96
56420;BME280;42323;52.170;7.538;2023-05-02T09:52:16;102079.69;;;12.00;48.15
56420;BME280;42323;52.170;7.538;2023-05-02T09:54:43;102094.00;;;11.88;47.91
56420;BME280;42323;52.170;7.538;2023-05-02T09:57:12;102098.72;;;11.85;48.03
56420;BME280;42323;52.170;7.538;2023-05-02T09:59:39;102098.59;;;11.76;47.21
56420;BME280;42323;52.170;7.538;2023-05-02T10:02:08;102103.03;;;11.76;46.31
56420;BME280;42323;52.170;7.538;2023-05-02T10:04:37;102105.88;;;11.92;46.36
56420;BME280;42323;52.170;7.538;2023-05-02T10:07:06;102122.63;;;12.09;45.74
56420;BME280;42323;52.170;7.538;2023-05-02T10:09:36;102118.75;;;12.31;44.37
56420;BME280;42323;52.170;7.538;2023-05-02T10:12:05;102106.88;;;12.45;44.12
56420;BME280;42323;52.170;7.538;2023-05-02T10:14:40;102124.81;;;12.49;43.07
56420;BME280;42323;52.170;7.538;2023-05-02T10:17:13;102117.84;;;12.22;44.18
56420;BME280;42323;52.170;7.538;2023-05-02T10:19:51;102122.53;;;12.54;44.03
56420;BME280;42323;52.170;7.538;2023-05-02T10:22:19;102118.94;;;14.84;39.24
56420;BME280;42323;52.170;7.538;2023-05-02T10:24:48;102112.63;;;16.42;35.94
56420;BME280;42323;52.170;7.538;2023-05-02T10:27:15;102098.66;;;17.60;33.75
56420;BME280;42323;52.170;7.538;2023-05-02T10:29:43;102112.75;;;17.01;34.25
56420;BME280;42323;52.170;7.538;2023-05-02T10:32:10;102081.75;;;15.88;35.38
56420;BME280;42323;52.170;7.538;2023-05-02T10:34:39;102088.41;;;15.45;36.90
56420;BME280;42323;52.170;7.538;2023-05-02T10:37:10;102127.22;;;15.36;37.50
56420;BME280;42323;52.170;7.538;2023-05-02T10:40:00;102094.03;;;14.86;37.69
56420;BME280;42323;52.170;7.538;2023-05-02T10:42:27;102077.22;;;14.79;37.70
56420;BME280;42323;52.170;7.538;2023-05-02T10:44:55;102117.66;;;14.55;38.66
56420;BME280;42323;52.170;7.538;2023-05-02T10:47:23;102110.41;;;14.65;38.61
56420;BME280;42323;52.170;7.538;2023-05-02T10:49:59;102116.50;;;14.58;38.54
56420;BME280;42323;52.170;7.538;2023-05-02T10:52:31;102117.63;;;14.71;38.68
56420;BME280;42323;52.170;7.538;2023-05-02T10:55:20;102126.72;;;14.77;38.23
56420;BME280;42323;52.170;7.538;2023-05-02T11:00:27;102130.28;;;14.27;39.14
56420;BME280;42323;52.170;7.538;2023-05-02T11:02:55;102135.56;;;15.09;37.56
56420;BME280;42323;52.170;7.538;2023-05-02T11:05:23;102131.09;;;15.17;36.87
56420;BME280;42323;52.170;7.538;2023-05-02T11:10:48;102119.13;;;15.85;34.58
56420;BME280;42323;52.170;7.538;2023-05-02T11:13:14;102114.03;;;17.05;34.86
56420;BME280;42323;52.170;7.538;2023-05-02T11:18:11;102104.97;;;17.95;31.18
56420;BME280;42323;52.170;7.538;2023-05-02T11:20:39;102118.72;;;18.97;30.88
56420;BME280;42323;52.170;7.538;2023-05-02T11:25:56;102102.59;;;19.88;28.72
56420;BME280;42323;52.170;7.538;2023-05-02T11:28:44;102120.03;;;20.17;27.05
56420;BME280;42323;52.170;7.538;2023-05-02T11:34:00;102138.38;;;17.89;31.32
56420;BME280;42323;52.170;7.538;2023-05-02T11:38:54;102133.66;;;16.81;33.60
56420;BME280;42323;52.170;7.538;2023-05-02T11:41:21;102126.38;;;16.14;32.45
56420;BME280;42323;52.170;7.538;2023-05-02T11:44:01;102129.94;;;16.44;33.04
56420;BME280;42323;52.170;7.538;2023-05-02T11:46:29;102128.28;;;18.42;30.06
56420;BME280;42323;52.170;7.538;2023-05-02T11:48:56;102138.78;;;18.29;30.29
56420;BME280;42323;52.170;7.538;2023-05-02T11:51:22;102128.22;;;20.29;28.15
56420;BME280;42323;52.170;7.538;2023-05-02T11:53:49;102131.59;;;19.76;27.27
56420;BME280;42323;52.170;7.538;2023-05-02T11:56:22;102145.28;;;17.39;31.26
56420;BME280;42323;52.170;7.538;2023-05-02T11:59:02;102152.41;;;16.71;32.82
56420;BME280;42323;52.170;7.538;2023-05-02T12:01:29;102174.59;;;17.82;30.85
56420;BME280;42323;52.170;7.538;2023-05-02T12:04:06;102158.50;;;18.84;29.01
56420;BME280;42323;52.170;7.538;2023-05-02T12:06:33;102163.00;;;19.53;27.77
56420;BME280;42323;52.170;7.538;2023-05-02T12:09:09;102162.44;;;19.64;28.90
56420;BME280;42323;52.170;7.538;2023-05-02T12:11:36;102148.22;;;18.32;30.46
56420;BME280;42323;52.170;7.538;2023-05-02T12:14:04;102150.97;;;18.66;30.30
56420;BME280;42323;52.170;7.538;2023-05-02T12:16:32;102151.22;;;19.69;28.97
56420;BME280;42323;52.170;7.538;2023-05-02T12:18:59;102148.19;;;19.37;28.83
56420;BME280;42323;52.170;7.538;2023-05-02T12:21:27;102158.66;;;19.11;28.44
56420;BME280;42323;52.170;7.538;2023-05-02T12:23:55;102153.31;;;18.12;30.46
56420;BME280;42323;52.170;7.538;2023-05-02T12:26:23;102156.22;;;18.60;30.30
56420;BME280;42323;52.170;7.538;2023-05-02T12:28:51;102164.81;;;19.87;28.49
56420;BME280;42323;52.170;7.538;2023-05-02T12:31:20;102160.66;;;20.79;26.97
56420;BME280;42323;52.170;7.538;2023-05-02T12:33:47;102151.53;;;21.85;25.37
56420;BME280;42323;52.170;7.538;2023-05-02T12:36:15;102157.50;;;22.75;23.92
56420;BME280;42323;52.170;7.538;2023-05-02T12:38:50;102157.88;;;22.78;23.91
56420;BME280;42323;52.170;7.538;2023-05-02T12:41:19;102156.69;;;21.35;25.93
56420;BME280;42323;52.170;7.538;2023-05-02T12:43:55;102165.97;;;20.92;26.03
56420;BME280;42323;52.170;7.538;2023-05-02T12:46:21;102164.72;;;20.35;27.32
56420;BME280;42323;52.170;7.538;2023-05-02T12:48:59;102169.59;;;19.64;27.72
56420;BME280;42323;52.170;7.538;2023-05-02T12:51:26;102177.81;;;18.56;29.66
56420;BME280;42323;52.170;7.538;2023-05-02T12:53:54;102171.78;;;18.41;29.77
56420;BME280;42323;52.170;7.538;2023-05-02T12:56:20;102178.25;;;18.17;30.64
56420;BME280;42323;52.170;7.538;2023-05-02T12:58:47;102174.75;;;18.53;30.02
56420;BME280;42323;52.170;7.538;2023-05-02T13:01:14;102175.97;;;17.93;31.12
56420;BME280;42323;52.170;7.538;2023-05-02T13:03:41;102186.69;;;18.85;28.99
56420;BME280;42323;52.170;7.538;2023-05-02T13:06:08;102178.88;;;19.81;27.80
56420;BME280;42323;52.170;7.538;2023-05-02T13:08:35;102179.69;;;20.49;26.29
56420;BME280;42323;52.170;7.538;2023-05-02T13:11:02;102178.84;;;21.35;26.07
56420;BME280;42323;52.170;7.538;2023-05-02T13:13:29;102179.88;;;21.86;24.54
56420;BME280;42323;52.170;7.538;2023-05-02T13:15:55;102181.69;;;22.30;23.42
56420;BME280;42323;52.170;7.538;2023-05-02T13:18:22;102178.25;;;20.80;24.81
56420;BME280;42323;52.170;7.538;2023-05-02T13:20:48;102188.25;;;21.31;25.40
56420;BME280;42323;52.170;7.538;2023-05-02T13:23:15;102188.25;;;22.34;23.51
56420;BME280;42323;52.170;7.538;2023-05-02T13:25:42;102180.56;;;23.38;23.09
56420;BME280;42323;52.170;7.538;2023-05-02T13:28:08;102184.19;;;24.40;22.47
56420;BME280;42323;52.170;7.538;2023-05-02T13:30:35;102180.16;;;25.08;21.66
56420;BME280;42323;52.170;7.538;2023-05-02T13:33:01;102194.78;;;22.88;22.88
56420;BME280;42323;52.170;7.538;2023-05-02T13:35:27;102205.91;;;20.59;25.73
56420;BME280;42323;52.170;7.538;2023-05-02T13:37:54;102207.34;;;20.48;25.97
56420;BME280;42323;52.170;7.538;2023-05-02T13:40:20;102205.63;;;21.60;25.96
56420;BME280;42323;52.170;7.538;2023-05-02T13:42:47;102212.69;;;20.88;26.14
56420;BME280;42323;52.170;7.538;2023-05-02T13:45:13;102202.63;;;21.95;24.65
56420;BME280;42323;52.170;7.538;2023-05-02T13:47:41;102204.84;;;22.68;24.50
56420;BME280;42323;52.170;7.538;2023-05-02T13:50:08;102208.75;;;23.40;23.42
56420;BME280;42323;52.170;7.538;2023-05-02T13:52:34;102209.91;;;23.26;23.21